Time;durP1;ratioP1;P1;durP2;ratioP2;P2;SDS_P1;SDS_P2;PMS_P1;PMS_P2;Temp;Humidity;BMP_temperature;BMP_pressure;BME280_temperature;BME280_humidity;BME280_pressure;Samples;Min_cycle;Max_cycle;Signal;HPM_P1;HPM_P2
2021/07/14 00:01:05;;;;;;;60.58;25.65;;;;;;;16.26;100.00;101160.25;5199650;28;20041;-82
2021/07/14 00:03:36;;;;;;;58.05;24.20;;;;;;;16.24;100.00;101153.38;5218448;28;20047;-82
2021/07/14 00:06:06;;;;;;;62.67;25.23;;;;;;;16.25;100.00;101153.16;5206408;28;20021;-82
2021/07/14 00:08:37;;;;;;;51.75;24.63;;;;;;;16.22;100.00;101159.00;5210816;28;20116;-82
2021/07/14 00:11:07;;;;;;;58.58;24.92;;;;;;;16.16;100.00;101158.91;5195675;28;20077;-82
2021/07/14 00:13:58;;;;;;;58.42;24.25;;;;;;;16.18;100.00;101165.81;5194502;28;20475;-82
2021/07/14 00:22:09;;;;;;;74.30;27.08;;;;;;;16.06;100.00;101161.94;5212016;28;20116;-82
2021/07/14 00:24:40;;;;;;;59.25;25.55;;;;;;;16.17;100.00;101156.03;5212408;28;20025;-82
2021/07/14 00:27:12;;;;;;;56.03;24.67;;;;;;;16.14;100.00;101156.41;5200839;28;20031;-82
2021/07/14 00:29:50;;;;;;;56.28;24.40;;;;;;;16.11;100.00;101155.97;5198060;28;20033;-82
2021/07/14 00:32:23;;;;;;;53.22;24.35;;;;;;;16.07;100.00;101152.81;5214174;28;20056;-82
2021/07/14 00:34:54;;;;;;;54.30;24.17;;;;;;;16.07;100.00;101150.13;5212148;28;20024;-82
2021/07/14 00:37:24;;;;;;;57.00;23.50;;;;;;;16.11;100.00;101134.31;5197405;28;20114;-82
2021/07/14 00:39:55;;;;;;;54.08;23.48;;;;;;;16.10;100.00;101149.72;5217178;28;20498;-82
2021/07/14 00:42:27;;;;;;;47.72;21.65;;;;;;;16.08;100.00;101146.38;5199223;28;20321;-82
2021/07/14 00:44:57;;;;;;;61.67;23.50;;;;;;;16.04;100.00;101164.88;5211526;28;20032;-82
2021/07/14 00:47:31;;;;;;;51.92;23.00;;;;;;;15.98;100.00;101164.81;5212173;28;20025;-82
2021/07/14 00:50:06;;;;;;;47.13;22.58;;;;;;;16.02;100.00;101161.53;5216383;28;20033;-83
2021/07/14 00:52:36;;;;;;;49.33;22.77;;;;;;;15.98;100.00;101165.66;5217997;28;20025;-83
2021/07/14 00:55:08;;;;;;;57.20;22.63;;;;;;;15.99;100.00;101166.47;5196497;28;20025;-82
2021/07/14 00:57:38;;;;;;;46.90;22.95;;;;;;;16.01;100.00;101161.69;5211289;28;20099;-82
2021/07/14 01:00:11;;;;;;;42.80;22.13;;;;;;;15.98;100.00;101156.69;5213098;28;20124;-82
2021/07/14 01:02:42;;;;;;;48.67;22.58;;;;;;;15.98;100.00;101154.81;5222192;28;20028;-82
2021/07/14 01:05:20;;;;;;;56.72;21.05;;;;;;;15.99;100.00;101152.94;5212847;28;20545;-83
2021/07/14 01:08:04;;;;;;;52.28;23.20;;;;;;;15.92;100.00;101149.38;5213552;28;20029;-83
2021/07/14 01:10:40;;;;;;;48.05;22.40;;;;;;;15.90;100.00;101154.09;5193023;28;20436;-82
2021/07/14 01:13:15;;;;;;;47.95;23.33;;;;;;;15.89;100.00;101155.97;5211880;28;20067;-82
2021/07/14 01:16:01;;;;;;;44.83;22.15;;;;;;;15.83;100.00;101159.47;5193802;28;20028;-82
2021/07/14 01:18:57;;;;;;;58.30;23.67;;;;;;;15.90;100.00;101154.94;5211512;28;20120;-82
2021/07/14 01:21:35;;;;;;;47.63;22.10;;;;;;;15.89;100.00;101161.38;5210932;28;20475;-82
2021/07/14 01:24:29;;;;;;;55.70;23.00;;;;;;;15.86;100.00;101159.06;5215523;28;20033;-82
2021/07/14 01:27:18;;;;;;;61.58;22.88;;;;;;;15.92;100.00;101160.19;5217396;28;20048;-82
2021/07/14 01:29:59;;;;;;;63.30;22.30;;;;;;;15.91;100.00;101161.19;5216141;28;20037;-82
2021/07/14 01:32:30;;;;;;;47.97;22.27;;;;;;;15.89;100.00;101155.16;5215202;28;20025;-83
2021/07/14 01:35:06;;;;;;;47.78;20.58;;;;;;;15.92;100.00;101160.19;5210730;28;20530;-83
2021/07/14 01:37:39;;;;;;;50.15;20.55;;;;;;;15.91;100.00;101164.72;5211110;28;20049;-82
2021/07/14 01:40:11;;;;;;;49.22;21.05;;;;;;;15.88;100.00;101158.88;5214663;28;20029;-83
2021/07/14 01:42:44;;;;;;;40.47;20.00;;;;;;;15.90;100.00;101164.94;5216625;28;20028;-83
2021/07/14 01:45:15;;;;;;;42.95;20.67;;;;;;;15.95;100.00;101162.47;5213340;28;20198;-83
2021/07/14 01:47:59;;;;;;;48.90;20.27;;;;;;;15.93;100.00;101159.16;5189425;28;20140;-83
2021/07/14 01:50:32;;;;;;;40.60;19.13;;;;;;;15.82;100.00;101151.56;5198056;28;20032;-82
2021/07/14 01:53:03;;;;;;;44.33;19.48;;;;;;;15.86;100.00;101153.66;5210982;28;20104;-82
2021/07/14 01:55:40;;;;;;;56.35;20.70;;;;;;;15.83;100.00;101147.81;5210648;28;20030;-83
2021/07/14 01:58:13;;;;;;;42.22;18.67;;;;;;;15.82;100.00;101146.97;5190285;28;20102;-82
2021/07/14 02:00:44;;;;;;;40.78;18.50;;;;;;;15.82;100.00;101151.56;5208859;28;20029;-83
2021/07/14 02:06:00;;;;;;;42.20;19.58;;;;;;;15.88;100.00;101151.59;5214893;28;20022;-83
2021/07/14 02:08:37;;;;;;;52.78;19.52;;;;;;;15.85;100.00;101154.69;5217011;28;20405;-83
2021/07/14 02:11:08;;;;;;;42.63;18.70;;;;;;;15.81;100.00;101156.09;5193041;28;20029;-83
2021/07/14 02:13:39;;;;;;;47.08;19.90;;;;;;;15.87;100.00;101149.09;5208494;28;20029;-83
2021/07/14 02:16:10;;;;;;;43.65;20.98;;;;;;;15.81;100.00;101145.28;5212213;28;20036;-82
2021/07/14 02:18:47;;;;;;;53.63;21.33;;;;;;;15.76;100.00;101156.72;5207270;28;20086;-82
2021/07/14 02:21:18;;;;;;;43.78;20.60;;;;;;;15.81;100.00;101156.09;5209766;28;20060;-82
2021/07/14 02:23:48;;;;;;;48.25;21.08;;;;;;;15.77;100.00;101161.06;5216346;28;20025;-82
2021/07/14 02:26:19;;;;;;;49.35;22.10;;;;;;;15.79;100.00;101148.19;5216510;28;20108;-83
2021/07/14 02:28:50;;;;;;;46.00;21.20;;;;;;;15.80;100.00;101149.03;5210585;28;20025;-83
2021/07/14 02:31:20;;;;;;;56.75;21.90;;;;;;;15.83;100.00;101151.34;5190391;28;20061;-83
2021/07/14 02:33:51;;;;;;;53.60;21.73;;;;;;;15.80;100.00;101144.44;5214467;28;20404;-82
2021/07/14 02:36:23;;;;;;;51.75;22.95;;;;;;;15.69;100.00;101149.53;5216009;28;20061;-83
2021/07/14 02:38:59;;;;;;;48.78;21.73;;;;;;;15.75;100.00;101146.06;5202794;28;20029;-83
2021/07/14 02:41:38;;;;;;;51.22;23.45;;;;;;;15.66;100.00;101142.66;5197412;28;20057;-82
2021/07/14 02:44:12;;;;;;;61.70;22.90;;;;;;;15.75;100.00;101137.94;5215549;28;20028;-82
2021/07/14 02:46:45;;;;;;;54.28;24.70;;;;;;;15.68;100.00;101140.59;5211390;28;20028;-82
2021/07/14 02:49:24;;;;;;;60.47;25.70;;;;;;;15.67;100.00;101143.50;5208582;28;20554;-82
2021/07/14 02:51:57;;;;;;;67.85;26.23;;;;;;;15.76;100.00;101131.50;5210876;28;20095;-82
2021/07/14 02:54:28;;;;;;;65.70;25.20;;;;;;;15.78;100.00;101133.00;5202151;28;20032;-82
2021/07/14 02:57:02;;;;;;;61.67;24.80;;;;;;;15.76;100.00;101116.13;5205450;28;20040;-83
2021/07/14 02:59:37;;;;;;;66.65;25.27;;;;;;;15.77;100.00;101109.69;5190603;28;20017;-83
2021/07/14 03:02:09;;;;;;;57.78;25.17;;;;;;;15.74;100.00;101115.47;5209295;28;20506;-83
2021/07/14 03:04:43;;;;;;;74.47;27.23;;;;;;;15.67;100.00;101114.59;5204796;28;20472;-82
2021/07/14 03:07:15;;;;;;;71.30;27.50;;;;;;;15.72;100.00;101114.84;5207362;28;20021;-83
2021/07/14 03:09:46;;;;;;;67.07;28.58;;;;;;;15.67;100.00;101119.16;5210482;28;20035;-82
2021/07/14 03:12:20;;;;;;;76.38;29.17;;;;;;;15.67;100.00;101109.16;5215683;28;20025;-83
2021/07/14 03:14:56;;;;;;;79.68;29.38;;;;;;;15.75;100.00;101108.19;5197536;28;20094;-83
2021/07/14 03:17:30;;;;;;;75.07;29.17;;;;;;;15.74;100.00;101120.03;5215123;28;20032;-83
2021/07/14 03:20:05;;;;;;;74.22;31.17;;;;;;;15.70;100.00;101111.47;5214412;28;20021;-82
2021/07/14 03:22:36;;;;;;;;;;;;;;;15.72;100.00;101114.84;5213228;28;20029;-82
2021/07/14 03:25:08;;;;;;;77.20;30.20;;;;;;;15.74;100.00;101118.19;5209285;28;19908;-82
2021/07/14 03:27:41;;;;;;;86.05;30.63;;;;;;;15.71;100.00;101115.88;5193015;28;20064;-82
2021/07/14 03:30:13;;;;;;;91.68;31.08;;;;;;;15.74;100.00;101120.03;5213966;28;20112;-82
2021/07/14 03:32:44;;;;;;;96.20;35.58;;;;;;;15.68;100.00;101118.13;5214838;28;20301;-82
2021/07/14 03:35:16;;;;;;;88.15;34.13;;;;;;;15.75;100.00;101122.53;5209434;28;20028;-82
2021/07/14 03:37:48;;;;;;;95.00;32.38;;;;;;;15.71;100.00;101113.16;5209669;28;20021;-82
2021/07/14 03:40:20;;;;;;;87.82;32.53;;;;;;;15.78;100.00;101111.34;5212599;28;20025;-82
2021/07/14 03:42:53;;;;;;;92.95;31.60;;;;;;;15.83;100.00;101109.94;5214758;28;20029;-82
2021/07/14 03:45:27;;;;;;;79.40;31.45;;;;;;;15.83;100.00;101113.47;5213149;28;20131;-81
2021/07/14 03:47:59;;;;;;;85.90;31.88;;;;;;;15.83;100.00;101115.34;5209124;28;20025;-81
2021/07/14 03:50:30;;;;;;;90.40;31.75;;;;;;;15.83;100.00;101116.19;5208565;28;20037;-81
2021/07/14 03:53:02;;;;;;;73.55;30.65;;;;;;;15.88;100.00;101118.31;5208284;28;20471;-82
2021/07/14 03:55:34;;;;;;;83.80;31.70;;;;;;;15.90;100.00;101124.34;5208817;28;20384;-82
2021/07/14 03:58:04;;;;;;;94.97;32.88;;;;;;;15.88;100.00;101126.44;5211261;28;20104;-82
2021/07/14 04:00:36;;;;;;;80.60;32.50;;;;;;;15.96;100.00;101135.22;5207912;28;20116;-82
2021/07/14 04:03:09;;;;;;;98.20;33.50;;;;;;;15.88;100.00;101137.25;5221735;28;20029;-82
2021/07/14 04:05:43;;;;;;;79.75;32.85;;;;;;;15.90;100.00;101135.16;5208918;28;20099;-82
2021/07/14 04:08:19;;;;;;;93.07;33.85;;;;;;;15.96;100.00;101140.63;5217943;28;20431;-82
2021/07/14 04:10:50;;;;;;;89.03;32.97;;;;;;;16.00;100.00;101141.09;5211790;28;20052;-82
2021/07/14 04:13:20;;;;;;;94.72;35.53;;;;;;;15.94;100.00;101139.16;5212050;28;20028;-82
2021/07/14 04:15:51;;;;;;;96.72;33.55;;;;;;;16.02;100.00;101137.19;5218577;28;20480;-82
2021/07/14 04:18:21;;;;;;;93.65;33.90;;;;;;;16.05;100.00;101125.09;5189450;28;20025;-82
2021/07/14 04:20:52;;;;;;;109.07;36.15;;;;;;;16.04;100.00;101118.03;5216581;28;20033;-82
2021/07/14 04:23:22;;;;;;;99.78;35.15;;;;;;;15.99;100.00;101112.38;5200691;28;20078;-82
2021/07/14 04:25:52;;;;;;;95.07;36.20;;;;;;;15.98;100.00;101119.66;5214674;28;20040;-82
2021/07/14 04:28:24;;;;;;;97.15;34.78;;;;;;;16.02;100.00;101126.34;5194222;28;20369;-82
2021/07/14 04:30:55;;;;;;;105.38;37.80;;;;;;;15.96;100.00;101126.28;5213407;28;20029;-81
2021/07/14 04:33:25;;;;;;;102.00;37.70;;;;;;;15.98;100.00;101119.66;5200319;28;20022;-82
2021/07/14 04:35:56;;;;;;;104.35;36.47;;;;;;;16.03;100.00;101135.31;5217752;28;20295;-82
2021/07/14 04:38:26;;;;;;;105.50;36.03;;;;;;;16.03;100.00;101121.78;5211918;28;20098;-82
2021/07/14 04:40:57;;;;;;;111.68;37.28;;;;;;;15.97;100.00;101123.38;5194012;28;20025;-82
2021/07/14 04:43:27;;;;;;;112.57;36.90;;;;;;;16.01;100.00;101126.53;5217502;28;20026;-81
2021/07/14 04:45:58;;;;;;;114.25;36.40;;;;;;;16.00;100.00;101116.72;5200463;28;20021;-82
2021/07/14 04:48:29;;;;;;;110.75;37.92;;;;;;;16.12;100.00;101117.06;5214090;28;20506;-82
2021/07/14 04:50:59;;;;;;;100.63;35.70;;;;;;;16.09;100.00;101112.84;5203386;28;20061;-82
2021/07/14 04:53:30;;;;;;;115.93;38.47;;;;;;;16.12;100.00;101115.19;5214550;28;20052;-82
2021/07/14 04:56:00;;;;;;;115.25;37.08;;;;;;;16.08;100.00;101130.13;5209789;28;20104;-82
2021/07/14 04:58:31;;;;;;;118.18;36.90;;;;;;;16.14;100.00;101129.34;5215572;28;20021;-82
2021/07/14 05:01:01;;;;;;;104.78;35.88;;;;;;;16.11;100.00;101127.03;5205293;28;20063;-82
2021/07/14 05:03:32;;;;;;;113.15;36.72;;;;;;;16.15;100.00;101127.47;5217845;28;20033;-82
2021/07/14 05:06:02;;;;;;;109.93;36.28;;;;;;;16.18;100.00;101127.94;5205216;28;20061;-81
2021/07/14 05:08:33;;;;;;;105.95;37.92;;;;;;;16.13;100.00;101124.97;5218178;28;20486;-82
2021/07/14 05:11:03;;;;;;;104.30;35.90;;;;;;;16.20;100.00;101125.84;5203214;28;20399;-82
2021/07/14 05:13:34;;;;;;;94.32;34.35;;;;;;;16.25;100.00;101127.97;5217257;28;20033;-82
2021/07/14 05:16:05;;;;;;;110.75;37.58;;;;;;;16.16;100.00;101132.69;5195865;28;20045;-82
2021/07/14 05:18:37;;;;;;;105.80;37.75;;;;;;;16.20;100.00;101142.09;5194081;28;20029;-82
2021/07/14 05:21:07;;;;;;;124.65;39.05;;;;;;;16.16;100.00;101138.09;5212624;28;20383;-82
2021/07/14 05:23:38;;;;;;;108.15;38.88;;;;;;;16.23;100.00;101155.25;5217101;28;20026;-82
2021/07/14 05:26:08;;;;;;;105.85;36.60;;;;;;;16.25;100.00;101146.91;5216167;28;20113;-82
2021/07/14 05:28:39;;;;;;;101.60;35.15;;;;;;;16.22;100.00;101159.00;5211505;28;20036;-82
2021/07/14 05:31:09;;;;;;;113.38;38.20;;;;;;;16.22;100.00;101150.03;5209870;28;20396;-82
2021/07/14 05:33:40;;;;;;;105.80;36.40;;;;;;;16.18;100.00;101149.59;5216450;28;20547;-83
2021/07/14 05:36:11;;;;;;;112.63;38.75;;;;;;;16.15;100.00;101163.50;5217399;28;20032;-82
2021/07/14 05:38:42;;;;;;;113.65;38.22;;;;;;;16.14;100.00;101150.16;5213614;28;20048;-82
2021/07/14 05:41:13;;;;;;;98.85;36.88;;;;;;;16.26;100.00;101148.59;5209401;28;20064;-82
2021/07/14 05:43:43;;;;;;;100.47;37.58;;;;;;;16.28;100.00;101155.50;5213595;28;20030;-82
2021/07/14 05:46:14;;;;;;;105.38;36.90;;;;;;;16.33;100.00;101162.19;5203869;28;20029;-82
2021/07/14 05:48:44;;;;;;;97.40;35.80;;;;;;;16.25;100.00;101164.00;5215488;28;20025;-82
2021/07/14 05:51:16;;;;;;;98.35;35.60;;;;;;;16.25;100.00;101166.72;5209287;28;20439;-82
2021/07/14 05:53:46;;;;;;;101.65;37.75;;;;;;;16.29;100.00;101168.00;5210752;28;20025;-82
2021/07/14 05:56:17;;;;;;;95.47;35.17;;;;;;;16.30;100.00;101164.25;5216349;28;20104;-82
2021/07/14 05:58:47;;;;;;;90.43;34.45;;;;;;;16.28;100.00;101158.19;5217393;28;20055;-82
2021/07/14 06:01:19;;;;;;;93.75;33.28;;;;;;;16.27;100.00;101166.53;5210460;28;20445;-81
2021/07/14 06:03:49;;;;;;;100.82;35.72;;;;;;;16.26;100.00;101162.97;5223341;28;20486;-82
2021/07/14 06:06:20;;;;;;;92.68;32.97;;;;;;;16.27;100.00;101156.53;5211793;28;20022;-82
2021/07/14 06:08:50;;;;;;;96.78;35.05;;;;;;;16.26;100.00;101171.06;5216676;28;20022;-82
2021/07/14 06:11:22;;;;;;;85.93;33.22;;;;;;;16.27;100.00;101174.66;5213314;28;20107;-83
2021/07/14 06:13:52;;;;;;;86.13;33.17;;;;;;;16.20;100.00;101173.75;5210031;28;20029;-82
2021/07/14 06:16:22;;;;;;;95.43;33.95;;;;;;;16.25;100.00;101174.00;5211196;28;20494;-82
2021/07/14 06:18:53;;;;;;;99.38;35.50;;;;;;;16.31;100.00;101179.47;5216642;28;20026;-83
2021/07/14 06:21:23;;;;;;;88.85;33.42;;;;;;;16.29;100.00;101172.56;5214987;28;20060;-82
2021/07/14 06:23:54;;;;;;;92.43;36.05;;;;;;;16.22;100.00;101166.28;5192666;28;20063;-82
2021/07/14 06:26:24;;;;;;;89.15;33.67;;;;;;;16.27;100.00;101166.53;5209608;28;20032;-83
2021/07/14 06:28:55;;;;;;;86.97;33.67;;;;;;;16.24;100.00;101172.31;5214199;28;20491;-82
2021/07/14 06:31:26;;;;;;;98.68;35.25;;;;;;;16.34;100.00;101163.88;5215402;28;20047;-82
2021/07/14 06:33:56;;;;;;;83.82;32.42;;;;;;;16.42;100.00;101163.72;5212661;28;20021;-82
2021/07/14 06:36:27;;;;;;;89.18;31.70;;;;;;;16.40;100.00;101160.38;5210243;28;20535;-82
2021/07/14 06:39:01;;;;;;;73.53;28.17;;;;;;;16.42;100.00;101161.84;5211448;28;20029;-82
2021/07/14 06:41:32;;;;;;;79.63;29.50;;;;;;;16.33;100.00;101160.31;5215708;28;20021;-82
2021/07/14 06:44:04;;;;;;;76.75;27.90;;;;;;;16.43;100.00;101157.28;5197802;28;20267;-82
2021/07/14 06:46:34;;;;;;;76.72;27.67;;;;;;;16.40;100.00;101154.94;5210058;28;20420;-82
2021/07/14 06:49:05;;;;;;;70.22;26.63;;;;;;;16.41;100.00;101162.03;5207601;28;20022;-82
2021/07/14 06:51:35;;;;;;;65.70;25.42;;;;;;;16.42;100.00;101166.44;5210226;28;20501;-82
2021/07/14 06:54:06;;;;;;;63.35;24.92;;;;;;;16.46;100.00;101170.41;5209462;28;20033;-82
2021/07/14 06:56:36;;;;;;;62.35;25.58;;;;;;;16.45;100.00;101166.03;5213491;28;20021;-82
2021/07/14 06:59:07;;;;;;;66.97;26.30;;;;;;;16.45;100.00;101166.88;5214632;28;20028;-82
2021/07/14 07:01:37;;;;;;;70.97;26.67;;;;;;;16.43;100.00;101165.41;5195413;28;20029;-82
2021/07/14 07:04:08;;;;;;;71.32;27.67;;;;;;;16.44;100.00;101173.31;5217622;28;20518;-82
2021/07/14 07:06:38;;;;;;;65.72;26.38;;;;;;;16.41;100.00;101172.88;5202304;28;20045;-81
2021/07/14 07:09:09;;;;;;;65.68;27.50;;;;;;;16.40;100.00;101174.75;5214288;28;20565;-82
2021/07/14 07:11:39;;;;;;;61.88;26.10;;;;;;;16.56;100.00;101176.31;5215006;28;20498;-82
2021/07/14 07:14:10;;;;;;;63.22;26.33;;;;;;;16.52;100.00;101172.34;5210067;28;20391;-82
2021/07/14 07:16:40;;;;;;;53.63;25.05;;;;;;;16.52;100.00;101175.88;5221846;28;20145;-81
2021/07/14 07:19:11;;;;;;;60.85;27.27;;;;;;;16.50;100.00;101167.09;5209618;28;20021;-82
2021/07/14 07:21:41;;;;;;;62.38;27.58;;;;;;;16.60;100.00;101171.34;5206821;28;20049;-81
2021/07/14 07:24:12;;;;;;;66.22;28.33;;;;;;;16.57;100.00;101178.84;5211354;28;20025;-81
2021/07/14 07:26:45;;;;;;;58.72;25.85;;;;;;;16.61;100.00;101183.84;5191420;28;20064;-81
2021/07/14 07:29:16;;;;;;;50.28;24.85;;;;;;;16.61;100.00;101168.44;5210064;28;20037;-80
2021/07/14 07:31:46;;;;;;;56.28;25.20;;;;;;;16.63;100.00;101179.09;5215572;28;20021;-81
2021/07/14 07:34:18;;;;;;;60.78;25.90;;;;;;;16.53;100.00;101174.00;5214605;28;20032;-82
2021/07/14 07:36:49;;;;;;;57.83;24.92;;;;;;;16.49;100.00;101181.69;5185211;28;20029;-81
2021/07/14 07:39:20;;;;;;;63.75;24.45;;;;;;;16.56;100.00;101181.72;5216656;28;20059;-81
2021/07/14 07:41:50;;;;;;;58.55;25.55;;;;;;;16.62;100.00;101189.09;5213847;28;20039;-82
2021/07/14 07:44:20;;;;;;;59.30;25.08;;;;;;;16.55;100.00;101197.16;5213101;28;20113;-81
2021/07/14 07:46:51;;;;;;;57.75;26.75;;;;;;;16.58;100.00;101188.63;5217883;28;20372;-81
2021/07/14 07:49:22;;;;;;;57.88;26.75;;;;;;;16.57;100.00;101186.13;5218308;28;20517;-82
2021/07/14 07:51:52;;;;;;;56.03;26.40;;;;;;;16.61;100.00;101194.69;5215726;28;20045;-81
2021/07/14 07:54:23;;;;;;;61.83;23.38;;;;;;;16.69;100.00;101194.53;5194714;28;20021;-81
2021/07/14 07:56:53;;;;;;;55.38;23.98;;;;;;;16.66;100.00;101197.63;5215436;28;20026;-82
2021/07/14 07:59:24;;;;;;;49.55;22.77;;;;;;;16.64;100.00;101195.13;5218025;28;20029;-82
2021/07/14 08:01:54;;;;;;;45.20;21.15;;;;;;;16.68;100.00;101209.97;5200276;28;20060;-82
2021/07/14 08:04:25;;;;;;;46.50;20.35;;;;;;;16.69;100.00;101203.50;5225806;28;20067;-81
2021/07/14 08:06:55;;;;;;;47.28;21.70;;;;;;;16.67;100.00;101211.00;5192776;28;20026;-81
2021/07/14 08:09:26;;;;;;;42.97;19.98;;;;;;;16.74;100.00;101209.19;5216458;28;20091;-82
2021/07/14 08:11:57;;;;;;;41.97;20.65;;;;;;;16.69;100.00;101202.66;5218984;28;20368;-82
2021/07/14 08:14:27;;;;;;;42.85;19.20;;;;;;;16.74;100.00;101205.66;5197939;28;20407;-81
2021/07/14 08:16:58;;;;;;;41.88;19.58;;;;;;;16.65;100.00;101204.94;5212691;28;20028;-82
2021/07/14 08:19:28;;;;;;;32.75;16.90;;;;;;;16.68;100.00;101209.13;5213345;28;20072;-81
2021/07/14 08:21:59;;;;;;;34.40;16.30;;;;;;;16.77;100.00;101216.09;5187849;28;20104;-82
2021/07/14 08:24:29;;;;;;;30.73;15.82;;;;;;;16.79;100.00;101208.59;5204603;28;20052;-81
2021/07/14 08:27:00;;;;;;;34.83;15.77;;;;;;;16.79;100.00;101216.72;5218547;28;20018;-81
2021/07/14 08:29:30;;;;;;;31.90;16.45;;;;;;;16.76;100.00;101212.53;5216925;28;20060;-81
2021/07/14 08:32:00;;;;;;;34.83;16.58;;;;;;;16.72;100.00;101213.16;5213094;28;20062;-81
2021/07/14 08:34:31;;;;;;;31.60;16.38;;;;;;;16.71;100.00;101214.13;5212264;28;20036;-81
2021/07/14 08:37:01;;;;;;;31.35;15.48;;;;;;;16.72;100.00;101221.28;5216891;28;20032;-81
2021/07/14 08:39:33;;;;;;;31.55;15.40;;;;;;;16.63;100.00;101208.88;5216976;28;20025;-81
2021/07/14 08:42:04;;;;;;;28.02;14.88;;;;;;;16.70;100.00;101221.41;5215351;28;20025;-81
2021/07/14 08:44:35;;;;;;;28.85;15.98;;;;;;;16.71;100.00;101227.69;5211862;28;20024;-81
2021/07/14 08:47:07;;;;;;;30.25;16.20;;;;;;;16.66;100.00;101233.69;5187562;28;20064;-81
2021/07/14 08:49:40;;;;;;;37.50;17.05;;;;;;;16.66;100.00;101224.72;5216076;28;20025;-81
2021/07/14 08:52:12;;;;;;;33.20;18.67;;;;;;;16.60;100.00;101226.34;5217634;28;20056;-81
2021/07/14 08:54:43;;;;;;;29.75;16.92;;;;;;;16.67;100.00;101216.41;5193965;28;20159;-81
2021/07/14 08:57:16;;;;;;;33.22;18.92;;;;;;;16.78;100.00;101209.66;5212014;28;20017;-81
2021/07/14 08:59:47;;;;;;;35.03;18.58;;;;;;;16.80;100.00;101210.28;5214669;28;20025;-81
2021/07/14 09:02:17;;;;;;;38.50;18.83;;;;;;;16.75;100.00;101221.69;5221022;28;20344;-81
2021/07/14 09:04:48;;;;;;;38.88;19.20;;;;;;;16.79;100.00;101230.28;5224842;28;20020;-80
2021/07/14 09:07:18;;;;;;;41.40;19.95;;;;;;;16.72;100.00;101232.13;5209306;28;20033;-81
2021/07/14 09:09:49;;;;;;;37.20;19.55;;;;;;;16.57;100.00;101229.47;5211948;28;20455;-81
2021/07/14 09:12:20;;;;;;;39.33;19.40;;;;;;;16.62;100.00;101224.31;5210619;28;20025;-81
2021/07/14 09:14:50;;;;;;;34.65;19.23;;;;;;;16.69;100.00;101232.47;5194025;28;20144;-82
2021/07/14 09:17:24;;;;;;;35.92;17.70;;;;;;;16.69;100.00;101222.47;5217864;28;20162;-81
2021/07/14 09:20:25;;;;;;;35.85;18.65;;;;;;;16.70;100.00;101226.84;5216312;28;20021;-82
2021/07/14 09:23:10;;;;;;;37.28;20.90;;;;;;;16.67;100.00;101224.53;5200406;28;20048;-81
2021/07/14 09:25:51;;;;;;;38.10;20.15;;;;;;;16.62;100.00;101229.72;5216008;28;20025;-81
2021/07/14 09:28:27;;;;;;;38.15;19.38;;;;;;;16.57;100.00;101221.34;5217532;28;20519;-81
2021/07/14 09:31:07;;;;;;;32.63;18.33;;;;;;;16.63;100.00;101227.84;5214836;28;20099;-81
2021/07/14 09:33:43;;;;;;;32.47;17.60;;;;;;;16.61;100.00;101233.44;5203806;28;20399;-81
2021/07/14 09:36:13;;;;;;;31.38;14.82;;;;;;;16.60;100.00;101222.81;5199571;28;20491;-81
2021/07/14 09:38:44;;;;;;;27.58;14.50;;;;;;;16.60;100.00;101230.94;5213092;28;20104;-81
2021/07/14 09:41:14;;;;;;;27.33;15.32;;;;;;;16.64;100.00;101233.06;5209721;28;20052;-81
2021/07/14 09:43:45;;;;;;;30.77;18.20;;;;;;;16.68;100.00;101234.34;5213573;28;20025;-82
2021/07/14 09:46:19;;;;;;;34.50;18.67;;;;;;;16.71;100.00;101233.97;5208918;28;20036;-82
2021/07/14 09:48:51;;;;;;;33.67;19.48;;;;;;;16.66;100.00;101236.38;5194122;28;20025;-82
2021/07/14 09:51:23;;;;;;;39.65;21.38;;;;;;;16.54;100.00;101224.44;5215820;28;20029;-81
2021/07/14 09:53:56;;;;;;;33.10;18.50;;;;;;;16.64;100.00;101232.22;5216212;28;20535;-81
2021/07/14 09:56:28;;;;;;;32.28;18.88;;;;;;;16.60;100.00;101242.59;5206058;28;20033;-81
2021/07/14 09:59:02;;;;;;;32.88;18.10;;;;;;;16.67;100.00;101239.97;5216285;28;20017;-81
2021/07/14 10:01:35;;;;;;;27.83;17.57;;;;;;;16.68;100.00;101239.75;5212813;28;20040;-82
2021/07/14 10:04:09;;;;;;;30.30;18.50;;;;;;;16.73;100.00;101234.63;5219312;28;20029;-81
2021/07/14 10:06:40;;;;;;;39.42;17.65;;;;;;;16.75;100.00;101235.25;5203411;28;20053;-80
2021/07/14 10:09:22;;;;;;;32.63;18.17;;;;;;;16.73;100.00;101242.75;5215473;28;20083;-82
2021/07/14 10:11:52;;;;;;;33.72;17.77;;;;;;;16.82;100.00;101235.31;5216507;28;20032;-81
2021/07/14 10:14:28;;;;;;;35.85;18.75;;;;;;;16.92;100.00;101233.09;5212607;28;20071;-81
2021/07/14 10:16:59;;;;;;;31.52;17.58;;;;;;;16.94;100.00;101238.31;5210587;28;20029;-82
2021/07/14 10:19:29;;;;;;;31.35;17.27;;;;;;;16.97;100.00;101240.63;5222743;28;20406;-81
2021/07/14 10:22:00;;;;;;;26.77;15.45;;;;;;;16.99;100.00;101241.25;5209652;28;20392;-82
2021/07/14 10:24:31;;;;;;;26.25;16.02;;;;;;;16.95;100.00;101239.97;5210789;28;20029;-81
2021/07/14 10:27:02;;;;;;;28.85;15.35;;;;;;;16.94;100.00;101238.31;5216267;28;20136;-81
2021/07/14 10:29:33;;;;;;;27.40;16.27;;;;;;;16.94;100.00;101241.00;5215246;28;20499;-81
2021/07/14 10:32:04;;;;;;;26.52;15.18;;;;;;;17.04;100.00;101244.19;5210852;28;20036;-82
2021/07/14 10:34:34;;;;;;;24.38;14.13;;;;;;;17.14;100.00;101239.25;5209744;28;20505;-81
2021/07/14 10:37:05;;;;;;;26.55;14.75;;;;;;;17.10;100.00;101243.41;5205871;28;20851;-82
2021/07/14 10:39:37;;;;;;;31.08;15.23;;;;;;;17.19;100.00;101244.09;5208855;28;20394;-81
2021/07/14 10:42:08;;;;;;;32.38;15.73;;;;;;;17.24;100.00;101250.56;5195142;28;20022;-82
2021/07/14 10:44:39;;;;;;;26.33;15.35;;;;;;;17.25;100.00;101240.56;5215957;28;20514;-81
2021/07/14 10:47:10;;;;;;;30.42;16.00;;;;;;;17.19;100.00;101247.63;5196783;28;20064;-81
2021/07/14 10:49:41;;;;;;;24.48;15.32;;;;;;;17.35;100.00;101249.16;5190881;28;20525;-81
2021/07/14 10:52:12;;;;;;;26.30;15.20;;;;;;;17.44;100.00;101247.13;5191690;28;20065;-81
2021/07/14 10:54:42;;;;;;;22.50;14.43;;;;;;;17.45;100.00;101241.50;5191973;28;20048;-81
2021/07/14 10:57:14;;;;;;;23.83;13.73;;;;;;;17.48;100.00;101240.28;5209557;28;20030;-81
2021/07/14 10:59:46;;;;;;;20.83;13.75;;;;;;;17.50;100.00;101235.47;5212785;28;20057;-81
2021/07/14 11:02:17;;;;;;;24.80;15.02;;;;;;;17.44;100.00;101245.25;5200824;28;20124;-82
2021/07/14 11:04:50;;;;;;;28.80;14.50;;;;;;;17.52;100.00;101241.50;5212733;28;20067;-81
2021/07/14 11:07:35;;;;;;;24.35;14.88;;;;;;;17.59;100.00;101245.09;5207396;28;20152;-82
2021/07/14 11:10:23;;;;;;;26.40;13.68;;;;;;;17.54;100.00;101251.13;5183284;28;20432;-81
2021/07/14 11:12:56;;;;;;;24.77;13.45;;;;;;;17.41;100.00;101252.94;5194449;28;20398;-81
2021/07/14 11:15:35;;;;;;;24.83;13.30;;;;;;;17.40;100.00;101243.97;5209317;28;20021;-81
2021/07/14 11:18:30;;;;;;;25.02;14.68;;;;;;;17.42;100.00;101249.19;5209504;28;20025;-80
2021/07/14 11:21:00;;;;;;;26.55;13.18;;;;;;;17.33;100.00;101237.69;5210854;28;20635;-81
2021/07/14 11:23:31;;;;;;;23.75;13.13;;;;;;;17.35;100.00;101230.19;5209561;28;20031;-81
2021/07/14 11:26:03;;;;;;;23.27;14.35;;;;;;;17.39;100.00;101236.06;5193775;28;20029;-81
2021/07/14 11:28:33;;;;;;;23.80;12.57;;;;;;;17.30;100.00;101232.66;5197535;28;20029;-81
2021/07/14 11:31:10;;;;;;;18.83;12.25;;;;;;;17.33;100.00;101238.53;5214109;28;20067;-81
2021/07/14 11:33:41;;;;;;;20.02;12.27;;;;;;;17.29;100.00;101231.84;5214828;28;20100;-81